createdAt,value
2024-03-09T00:00:43.752Z,10.90
2024-03-09T00:03:11.799Z,11.43
2024-03-09T00:05:41.764Z,11.88
2024-03-09T00:08:10.214Z,11.43
2024-03-09T00:10:36.956Z,11.52
2024-03-09T00:13:04.136Z,10.93
2024-03-09T00:15:31.468Z,11.25
2024-03-09T00:17:58.646Z,12.02
2024-03-09T00:20:29.175Z,10.95
2024-03-09T00:22:59.563Z,10.60
2024-03-09T00:25:30.170Z,10.57
2024-03-09T00:27:58.058Z,12.07
2024-03-09T00:30:30.704Z,11.25
2024-03-09T00:33:00.346Z,12.27
2024-03-09T00:35:31.060Z,11.65
2024-03-09T00:37:58.772Z,10.82
2024-03-09T00:40:29.634Z,11.35
2024-03-09T00:42:57.826Z,11.00
2024-03-09T00:45:25.046Z,11.65
2024-03-09T00:47:51.929Z,11.55
2024-03-09T00:50:18.897Z,11.43
2024-03-09T00:52:46.810Z,11.23
2024-03-09T00:55:16.287Z,11.90
2024-03-09T00:57:44.109Z,11.60
2024-03-09T01:00:16.655Z,12.00
2024-03-09T01:02:44.437Z,11.65
2024-03-09T01:05:16.935Z,11.85
2024-03-09T01:07:43.737Z,11.95
2024-03-09T01:10:10.621Z,11.73
2024-03-09T01:12:37.660Z,11.95
2024-03-09T01:15:05.320Z,11.00
2024-03-09T01:17:32.022Z,11.65
2024-03-09T01:19:59.017Z,12.30
2024-03-09T01:22:25.683Z,12.07
2024-03-09T01:24:53.578Z,11.63
2024-03-09T01:27:20.008Z,12.32
2024-03-09T01:29:49.521Z,12.35
2024-03-09T01:32:16.458Z,12.13
2024-03-09T01:34:43.397Z,12.57
2024-03-09T01:37:11.711Z,12.93
2024-03-09T01:39:41.503Z,12.75
2024-03-09T01:42:10.852Z,13.20
2024-03-09T01:44:37.598Z,11.63
2024-03-09T01:47:08.628Z,11.95
2024-03-09T01:49:36.207Z,12.63
2024-03-09T01:52:03.086Z,12.20
2024-03-09T01:54:30.015Z,12.02
2024-03-09T01:56:58.113Z,12.35
2024-03-09T01:59:26.470Z,12.15
2024-03-09T02:01:53.083Z,12.88
2024-03-09T02:04:20.343Z,13.15
2024-03-09T02:06:48.180Z,13.05
2024-03-09T02:09:16.568Z,12.90
2024-03-09T02:11:44.014Z,12.90
2024-03-09T02:14:10.709Z,12.35
2024-03-09T02:16:37.449Z,14.10
2024-03-09T02:19:14.290Z,12.40
2024-03-09T02:21:47.451Z,13.30
2024-03-09T02:24:21.621Z,13.25
2024-03-09T02:26:48.953Z,13.25
2024-03-09T02:29:16.882Z,12.55
2024-03-09T02:31:43.739Z,13.27
2024-03-09T02:34:10.231Z,13.18
2024-03-09T02:36:39.589Z,13.27
2024-03-09T02:39:10.693Z,13.60
2024-03-09T02:41:38.000Z,12.48
2024-03-09T02:44:04.887Z,12.85
2024-03-09T02:46:31.538Z,14.18
2024-03-09T02:48:58.047Z,13.40
2024-03-09T02:51:27.972Z,14.25
2024-03-09T02:53:54.593Z,13.68
2024-03-09T02:56:21.655Z,14.35
2024-03-09T02:58:48.839Z,13.93
2024-03-09T03:01:18.029Z,13.57
2024-03-09T03:03:58.175Z,13.60
2024-03-09T03:06:26.436Z,14.98
2024-03-09T03:09:04.205Z,13.65
2024-03-09T03:11:30.857Z,13.88
2024-03-09T03:13:57.422Z,13.48
2024-03-09T03:16:28.229Z,15.18
2024-03-09T03:18:58.972Z,14.10
2024-03-09T03:21:26.405Z,14.43
2024-03-09T03:23:53.662Z,14.13
2024-03-09T03:26:21.135Z,14.77
2024-03-09T03:28:51.969Z,14.18
2024-03-09T03:31:22.133Z,15.65
2024-03-09T03:33:50.599Z,14.65
2024-03-09T03:36:21.705Z,15.93
2024-03-09T03:38:49.240Z,14.23
2024-03-09T03:41:16.725Z,14.55
2024-03-09T03:43:46.721Z,14.48
2024-03-09T03:46:14.418Z,13.75
2024-03-09T03:48:41.768Z,15.02
2024-03-09T03:51:13.690Z,14.18
2024-03-09T03:53:41.566Z,15.65
2024-03-09T03:56:11.120Z,14.50
2024-03-09T03:58:41.086Z,15.77
2024-03-09T04:01:07.904Z,14.32
2024-03-09T04:03:34.774Z,15.77
2024-03-09T04:06:02.081Z,16.02
2024-03-09T04:08:28.629Z,15.27
2024-03-09T04:10:58.688Z,15.55
2024-03-09T04:13:26.347Z,17.25
2024-03-09T04:15:53.833Z,17.00
2024-03-09T04:18:23.356Z,15.98
2024-03-09T04:20:50.385Z,16.40
2024-03-09T04:23:19.715Z,17.33
2024-03-09T04:25:47.784Z,16.52
2024-03-09T04:28:21.736Z,16.13
2024-03-09T04:30:49.887Z,17.08
2024-03-09T04:33:17.238Z,16.70
2024-03-09T04:35:46.407Z,15.50
2024-03-09T04:38:14.619Z,17.20
2024-03-09T04:40:44.546Z,16.20
2024-03-09T04:43:12.734Z,16.30
2024-03-09T04:45:39.169Z,17.13
2024-03-09T04:48:05.895Z,16.88
2024-03-09T04:50:34.505Z,17.52
2024-03-09T04:53:00.996Z,16.65
2024-03-09T04:55:29.241Z,17.90
2024-03-09T04:57:56.357Z,16.58
2024-03-09T05:00:25.684Z,17.38
2024-03-09T05:02:53.300Z,17.98
2024-03-09T05:05:20.489Z,17.88
2024-03-09T05:07:48.989Z,17.35
2024-03-09T05:10:19.604Z,18.38
2024-03-09T05:12:51.603Z,18.27
2024-03-09T05:15:18.417Z,18.10
2024-03-09T05:17:44.866Z,19.33
2024-03-09T05:20:16.185Z,19.13
2024-03-09T05:22:42.803Z,18.67
2024-03-09T05:25:11.925Z,18.08
2024-03-09T05:27:43.694Z,19.63
2024-03-09T05:30:19.791Z,18.73
2024-03-09T05:32:56.218Z,18.40
2024-03-09T05:35:23.841Z,20.33
2024-03-09T05:37:53.183Z,19.70
2024-03-09T05:40:23.167Z,20.17
2024-03-09T05:42:50.288Z,17.63
2024-03-09T05:45:21.654Z,19.92
2024-03-09T05:47:54.223Z,20.05
2024-03-09T05:50:21.753Z,19.63
2024-03-09T05:52:49.461Z,19.33
2024-03-09T05:55:20.874Z,19.73
2024-03-09T05:57:50.404Z,19.75
2024-03-09T06:00:18.499Z,20.27
2024-03-09T06:02:47.587Z,20.10
2024-03-09T06:05:15.171Z,19.60
2024-03-09T06:07:43.784Z,21.08
2024-03-09T06:10:20.710Z,19.83
2024-03-09T06:12:48.738Z,20.20
2024-03-09T06:15:15.995Z,20.33
2024-03-09T06:17:43.825Z,21.25
2024-03-09T06:20:11.691Z,21.58
2024-03-09T06:22:38.989Z,19.65
2024-03-09T06:25:06.240Z,20.23
2024-03-09T06:27:33.689Z,19.55
2024-03-09T06:30:00.871Z,21.67
2024-03-09T06:32:27.301Z,19.65
2024-03-09T06:34:56.701Z,20.15
2024-03-09T06:37:23.475Z,20.73
2024-03-09T06:39:49.963Z,20.55
2024-03-09T06:42:16.657Z,20.73
2024-03-09T06:44:43.359Z,20.80
2024-03-09T06:47:09.901Z,20.23
2024-03-09T06:49:39.239Z,18.95
2024-03-09T06:52:06.276Z,20.38
2024-03-09T06:54:33.054Z,21.08
2024-03-09T06:56:59.685Z,20.08
2024-03-09T06:59:26.211Z,20.58
2024-03-09T07:01:57.959Z,21.88
2024-03-09T07:04:27.127Z,21.25
2024-03-09T07:06:54.273Z,23.55
2024-03-09T07:09:21.398Z,20.23
2024-03-09T07:11:48.021Z,20.70
2024-03-09T07:14:14.622Z,21.20
2024-03-09T07:16:41.234Z,19.67
2024-03-09T07:19:07.736Z,21.23
2024-03-09T07:21:34.384Z,21.45
2024-03-09T07:24:01.562Z,21.23
2024-03-09T07:26:28.486Z,20.95
2024-03-09T07:28:56.257Z,20.35
2024-03-09T07:31:23.318Z,21.88
2024-03-09T07:33:54.666Z,20.75
2024-03-09T07:36:21.808Z,20.70
2024-03-09T07:38:49.771Z,21.00
2024-03-09T07:41:22.796Z,20.95
2024-03-09T07:43:49.393Z,22.10
2024-03-09T07:46:16.254Z,21.92
2024-03-09T07:48:43.211Z,20.25
2024-03-09T07:51:12.818Z,21.17
2024-03-09T07:53:39.762Z,20.40
2024-03-09T07:56:06.842Z,20.88
2024-03-09T07:58:33.389Z,21.38
2024-03-09T08:00:59.895Z,20.60
2024-03-09T08:03:26.729Z,20.27
2024-03-09T08:05:53.356Z,21.17
2024-03-09T08:08:20.076Z,20.98
2024-03-09T08:10:54.180Z,20.83
2024-03-09T08:13:22.817Z,21.23
2024-03-09T08:15:49.422Z,22.25
2024-03-09T08:18:16.157Z,21.33
2024-03-09T08:20:43.020Z,21.80
2024-03-09T08:23:09.852Z,20.52
2024-03-09T08:25:37.481Z,20.73
2024-03-09T08:28:04.852Z,20.10
2024-03-09T08:30:32.427Z,20.95
2024-03-09T08:33:02.737Z,20.42
2024-03-09T08:35:31.023Z,20.90
2024-03-09T08:37:57.746Z,20.90
2024-03-09T08:40:26.975Z,20.60
2024-03-09T08:42:53.880Z,21.63
2024-03-09T08:45:23.714Z,20.67
2024-03-09T08:47:54.439Z,20.80
2024-03-09T08:50:22.903Z,21.45
2024-03-09T08:52:49.822Z,20.95
2024-03-09T08:55:16.733Z,20.27
2024-03-09T08:57:44.042Z,21.65
2024-03-09T09:00:11.107Z,20.85
2024-03-09T09:02:41.621Z,21.23
2024-03-09T09:05:14.921Z,21.30
2024-03-09T09:07:42.827Z,20.80
2024-03-09T09:10:13.131Z,21.48
2024-03-09T09:12:43.675Z,20.70
2024-03-09T09:15:11.728Z,20.63
2024-03-09T09:17:38.341Z,19.95
2024-03-09T09:20:06.406Z,20.38
2024-03-09T09:22:33.241Z,20.00
2024-03-09T09:25:00.027Z,20.60
2024-03-09T09:27:28.219Z,19.42
2024-03-09T09:29:54.895Z,19.63
2024-03-09T09:32:25.128Z,21.48
2024-03-09T09:34:52.266Z,19.80
2024-03-09T09:37:19.379Z,19.35
2024-03-09T09:39:46.140Z,18.85
2024-03-09T09:42:12.808Z,21.17
2024-03-09T09:44:41.293Z,19.58
2024-03-09T09:47:07.784Z,19.23
2024-03-09T09:49:35.108Z,19.30
2024-03-09T09:52:04.970Z,18.52
2024-03-09T09:54:31.717Z,19.02
2024-03-09T09:56:58.567Z,19.38
2024-03-09T09:59:26.211Z,19.27
2024-03-09T10:01:55.804Z,18.52
2024-03-09T10:04:22.300Z,19.05
2024-03-09T10:06:49.192Z,18.65
2024-03-09T10:09:34.351Z,17.80
2024-03-09T10:12:02.820Z,19.63
2024-03-09T10:14:32.874Z,17.70
2024-03-09T10:17:10.792Z,17.77
2024-03-09T10:19:38.797Z,18.45
2024-03-09T10:22:05.707Z,17.85
2024-03-09T10:24:32.133Z,18.13
2024-03-09T10:27:07.227Z,18.13
2024-03-09T10:29:33.914Z,17.83
2024-03-09T10:32:01.633Z,17.15
2024-03-09T10:34:31.548Z,17.70
2024-03-09T10:37:01.717Z,17.80
2024-03-09T10:39:28.472Z,16.92
2024-03-09T10:41:56.256Z,17.65
2024-03-09T10:44:24.692Z,17.08
2024-03-09T10:46:52.514Z,16.67
2024-03-09T10:49:21.408Z,17.13
2024-03-09T10:51:59.843Z,16.67
2024-03-09T10:54:46.783Z,17.77
2024-03-09T10:57:22.626Z,17.35
2024-03-09T10:59:50.864Z,16.15
2024-03-09T11:02:18.602Z,16.83
2024-03-09T11:04:51.623Z,15.52
2024-03-09T11:07:21.329Z,16.60
2024-03-09T11:09:53.007Z,16.02
2024-03-09T11:12:20.789Z,15.52
2024-03-09T11:14:53.927Z,15.57
2024-03-09T11:17:25.015Z,14.77
2024-03-09T11:19:55.304Z,14.70
2024-03-09T11:22:41.514Z,15.45
2024-03-09T11:25:14.201Z,15.23
2024-03-09T11:27:43.866Z,14.40
2024-03-09T11:30:12.391Z,13.60
2024-03-09T11:32:41.928Z,12.05
2024-03-09T11:35:27.309Z,13.02
2024-03-09T11:37:54.214Z,12.18
2024-03-09T11:40:20.691Z,11.32
2024-03-09T11:42:47.412Z,10.65
2024-03-09T11:45:15.755Z,11.73
2024-03-09T11:47:42.272Z,12.00
2024-03-09T11:50:09.359Z,10.88
2024-03-09T11:52:35.967Z,11.02
2024-03-09T11:55:06.368Z,10.10
2024-03-09T11:57:39.098Z,10.97
2024-03-09T12:00:08.078Z,11.23
2024-03-09T12:02:38.342Z,11.30
2024-03-09T12:05:17.018Z,10.85
2024-03-09T12:07:45.052Z,11.20
2024-03-09T12:10:14.568Z,11.25
2024-03-09T12:12:42.319Z,11.65
2024-03-09T12:15:09.962Z,11.82
2024-03-09T12:17:37.082Z,12.75
2024-03-09T12:20:06.256Z,13.32
2024-03-09T12:22:33.999Z,12.85
2024-03-09T12:25:00.805Z,13.10
2024-03-09T12:27:28.394Z,13.32
2024-03-09T12:29:56.567Z,12.32
2024-03-09T12:32:33.596Z,12.40
2024-03-09T12:35:01.874Z,13.55
2024-03-09T12:37:29.033Z,13.43
2024-03-09T12:40:19.927Z,12.38
2024-03-09T12:42:48.664Z,13.77
2024-03-09T12:45:25.203Z,13.75
2024-03-09T12:47:54.918Z,12.95
2024-03-09T12:50:25.481Z,12.70
2024-03-09T12:52:52.877Z,12.35
2024-03-09T12:55:29.737Z,11.77
2024-03-09T12:58:00.983Z,12.27
2024-03-09T13:02:56.217Z,12.45
2024-03-09T13:05:24.034Z,12.65
2024-03-09T13:07:52.771Z,12.55
2024-03-09T13:10:22.404Z,12.07
2024-03-09T13:12:49.395Z,12.02
2024-03-09T13:15:21.428Z,12.70
2024-03-09T13:17:49.697Z,12.35
2024-03-09T13:20:21.267Z,12.20
2024-03-09T13:22:49.106Z,12.07
2024-03-09T13:25:16.285Z,12.05
2024-03-09T13:27:43.266Z,11.73
2024-03-09T13:30:26.746Z,11.35
2024-03-09T13:32:56.202Z,12.85
2024-03-09T13:35:23.552Z,11.95
2024-03-09T13:37:50.932Z,12.40
2024-03-09T13:40:27.004Z,12.85
2024-03-09T13:42:57.482Z,11.25
2024-03-09T13:45:25.273Z,11.57
2024-03-09T13:47:52.836Z,11.63
2024-03-09T13:50:22.582Z,11.07
2024-03-09T13:52:53.189Z,10.55
2024-03-09T13:55:19.721Z,11.10
2024-03-09T13:57:46.597Z,10.10
2024-03-09T14:00:20.423Z,10.95
2024-03-09T14:02:49.268Z,10.63
2024-03-09T14:05:22.505Z,10.73
2024-03-09T14:07:57.867Z,10.95
2024-03-09T14:10:26.419Z,10.50
2024-03-09T14:12:55.002Z,10.82
2024-03-09T14:15:22.673Z,10.65
2024-03-09T14:17:50.364Z,10.05
2024-03-09T14:20:26.512Z,9.77
2024-03-09T14:22:53.628Z,10.32
2024-03-09T14:25:25.605Z,10.85
2024-03-09T14:27:53.138Z,10.40
2024-03-09T14:30:31.260Z,9.73
2024-03-09T14:32:58.143Z,11.13
2024-03-09T14:35:25.092Z,11.18
2024-03-09T14:37:55.682Z,11.20
2024-03-09T14:40:24.881Z,11.13
2024-03-09T14:42:54.223Z,11.50
2024-03-09T14:45:23.088Z,11.25
2024-03-09T14:48:00.454Z,10.93
2024-03-09T14:50:30.387Z,11.20
2024-03-09T14:52:56.916Z,11.13
2024-03-09T14:55:32.372Z,9.95
2024-03-09T14:58:02.046Z,10.85
2024-03-09T15:00:44.203Z,10.00
2024-03-09T15:03:27.738Z,10.23
2024-03-09T15:05:54.390Z,10.63
2024-03-09T15:08:22.526Z,10.27
2024-03-09T15:10:58.293Z,10.48
2024-03-09T15:13:26.112Z,11.23
2024-03-09T15:15:53.044Z,11.30
2024-03-09T15:18:19.758Z,11.18
2024-03-09T15:20:47.227Z,11.88
2024-03-09T15:23:14.985Z,11.13
2024-03-09T15:25:42.369Z,12.13
2024-03-09T15:28:14.660Z,13.27
2024-03-09T15:30:41.709Z,13.32
2024-03-09T15:33:11.495Z,14.68
2024-03-09T15:35:39.656Z,13.45
2024-03-09T15:38:06.917Z,14.10
2024-03-09T15:40:33.706Z,14.02
2024-03-09T15:43:02.398Z,13.98
2024-03-09T15:45:33.658Z,13.45
2024-03-09T15:48:00.271Z,13.18
2024-03-09T15:50:27.025Z,13.07
2024-03-09T15:52:53.922Z,12.85
2024-03-09T15:55:25.028Z,12.48
2024-03-09T15:57:54.990Z,12.88
2024-03-09T16:00:23.706Z,12.80
2024-03-09T16:02:52.013Z,13.32
2024-03-09T16:05:21.757Z,12.77
2024-03-09T16:07:48.603Z,12.82
2024-03-09T16:10:22.423Z,13.90
2024-03-09T16:12:58.351Z,14.05
2024-03-09T16:15:26.025Z,13.90
2024-03-09T16:17:56.326Z,13.90
2024-03-09T16:20:30.088Z,14.43
2024-03-09T16:23:01.007Z,15.10
2024-03-09T16:25:33.207Z,15.70
2024-03-09T16:28:12.209Z,14.10
2024-03-09T16:30:49.115Z,14.13
2024-03-09T16:33:17.459Z,15.23
2024-03-09T16:35:51.402Z,15.05
2024-03-09T16:38:22.011Z,15.18
2024-03-09T16:40:49.557Z,15.30
2024-03-09T16:43:16.470Z,14.52
2024-03-09T16:45:46.380Z,15.98
2024-03-09T16:48:13.255Z,15.10
2024-03-09T16:50:43.290Z,16.23
2024-03-09T16:53:13.452Z,14.77
2024-03-09T16:55:43.137Z,15.77
2024-03-09T16:58:10.227Z,16.13
2024-03-09T17:00:37.075Z,16.38
2024-03-09T17:03:07.647Z,15.88
2024-03-09T17:05:34.107Z,16.42
2024-03-09T17:08:01.113Z,17.20
2024-03-09T17:10:38.283Z,17.20
2024-03-09T17:13:08.151Z,17.27
2024-03-09T17:15:35.863Z,17.80
2024-03-09T17:18:02.586Z,16.95
2024-03-09T17:20:30.988Z,16.85
2024-03-09T17:23:06.429Z,15.75
2024-03-09T17:25:35.682Z,16.25
2024-03-09T17:28:06.465Z,15.98
2024-03-09T17:30:37.989Z,16.33
2024-03-09T17:33:07.874Z,15.95
2024-03-09T17:35:35.864Z,14.90
2024-03-09T17:38:03.640Z,14.35
2024-03-09T17:40:32.443Z,14.77
2024-03-09T17:42:59.410Z,15.20
2024-03-09T17:45:27.085Z,15.15
2024-03-09T17:47:54.439Z,15.55
2024-03-09T17:50:21.113Z,15.18
2024-03-09T17:52:48.423Z,15.05
2024-03-09T17:55:19.399Z,14.40
2024-03-09T17:57:46.821Z,15.05
2024-03-09T18:00:24.146Z,13.85
2024-03-09T18:02:54.025Z,14.05
2024-03-09T18:05:30.173Z,14.48
2024-03-09T18:07:58.628Z,14.85
2024-03-09T18:10:28.944Z,14.98
2024-03-09T18:12:58.411Z,15.23
2024-03-09T18:15:26.247Z,15.50
2024-03-09T18:17:53.075Z,15.02
2024-03-09T18:20:24.725Z,16.58
2024-03-09T18:22:53.947Z,16.35
2024-03-09T18:25:49.649Z,17.17
2024-03-09T18:28:17.951Z,16.73
2024-03-09T18:30:46.309Z,16.52
2024-03-09T18:33:14.704Z,16.58
2024-03-09T18:35:42.726Z,17.75
2024-03-09T18:38:15.757Z,18.33
2024-03-09T18:40:42.460Z,17.98
2024-03-09T18:43:09.975Z,16.95
2024-03-09T18:45:36.703Z,17.75
2024-03-09T18:48:03.721Z,17.02
2024-03-09T18:50:30.553Z,17.45
2024-03-09T18:53:03.001Z,16.35
2024-03-09T18:55:31.288Z,16.85
2024-03-09T18:58:00.287Z,17.17
2024-03-09T19:00:31.777Z,18.23
2024-03-09T19:03:00.366Z,16.90
2024-03-09T19:05:27.532Z,17.80
2024-03-09T19:07:56.294Z,17.45
2024-03-09T19:10:23.831Z,17.98
2024-03-09T19:27:13.832Z,17.38
2024-03-09T19:29:42.446Z,17.60
2024-03-09T19:32:08.988Z,18.15
2024-03-09T19:42:17.384Z,17.33
2024-03-09T19:45:00.940Z,17.95
2024-03-09T19:47:28.874Z,19.77
2024-03-09T19:49:55.503Z,20.45
2024-03-09T19:52:23.385Z,20.50
2024-03-09T19:54:51.096Z,19.77
2024-03-09T19:57:17.689Z,20.25
2024-03-09T19:59:44.672Z,20.08
2024-03-09T20:02:12.371Z,20.75
2024-03-09T20:04:42.248Z,18.88
2024-03-09T20:07:11.610Z,19.73
2024-03-09T20:09:39.728Z,20.58
2024-03-09T20:12:08.110Z,21.55
2024-03-09T20:14:34.754Z,21.23
2024-03-09T20:17:01.545Z,20.08
2024-03-09T20:19:28.477Z,21.63
2024-03-09T20:21:55.007Z,21.27
2024-03-09T20:24:21.553Z,21.63
2024-03-09T20:26:48.005Z,22.55
2024-03-09T20:29:15.055Z,23.15
2024-03-09T20:31:44.877Z,22.75
2024-03-09T20:34:12.183Z,23.08
2024-03-09T20:36:39.155Z,23.02
2024-03-09T20:39:05.629Z,24.50
2024-03-09T20:41:32.724Z,22.23
2024-03-09T20:44:00.567Z,23.52
2024-03-09T20:46:27.912Z,25.45
2024-03-09T20:48:55.146Z,24.63
2024-03-09T20:51:24.233Z,24.75
2024-03-09T20:53:56.076Z,24.33
2024-03-09T20:56:22.583Z,24.65
2024-03-09T20:58:49.169Z,23.40
2024-03-09T21:01:16.132Z,23.88
2024-03-09T21:03:43.461Z,24.42
2024-03-09T21:06:10.180Z,23.30
2024-03-09T21:08:36.927Z,23.15
2024-03-09T21:11:06.655Z,23.25
2024-03-09T21:13:33.956Z,23.05
2024-03-09T21:16:01.114Z,22.83
2024-03-09T21:18:28.109Z,22.75
2024-03-09T21:20:58.787Z,22.92
2024-03-09T21:23:26.210Z,22.93
2024-03-09T21:25:53.021Z,23.05
2024-03-09T21:28:21.358Z,22.40
2024-03-09T21:30:50.480Z,23.00
2024-03-09T21:33:17.373Z,23.92
2024-03-09T21:35:44.035Z,22.23
2024-03-09T21:38:11.309Z,22.95
2024-03-09T21:40:38.118Z,22.27
2024-03-09T21:43:05.486Z,21.75
2024-03-09T21:45:32.344Z,22.45
2024-03-09T21:48:00.478Z,21.95
2024-03-09T21:50:30.615Z,22.55
2024-03-09T21:53:12.272Z,23.65
2024-03-09T21:55:48.726Z,22.27
2024-03-09T21:58:16.385Z,22.08
2024-03-09T22:00:49.100Z,22.38
2024-03-09T22:03:15.546Z,22.27
2024-03-09T22:05:47.486Z,22.70
2024-03-09T22:08:15.753Z,22.15
2024-03-09T22:10:42.455Z,23.00
2024-03-09T22:13:09.794Z,22.23
2024-03-09T22:15:36.184Z,23.88
2024-03-09T22:18:02.826Z,22.17
2024-03-09T22:20:29.476Z,21.13
2024-03-09T22:22:56.018Z,22.83
2024-03-09T22:25:27.420Z,22.50
2024-03-09T22:27:54.718Z,22.20
2024-03-09T22:30:22.599Z,23.48
2024-03-09T22:32:49.575Z,23.83
2024-03-09T22:35:16.358Z,22.80
2024-03-09T22:37:44.304Z,23.88
2024-03-09T22:40:13.313Z,22.90
2024-03-09T22:42:39.905Z,22.95
2024-03-09T22:47:55.769Z,23.20
2024-03-09T22:50:25.302Z,23.73
2024-03-09T22:52:53.531Z,23.08
2024-03-09T22:55:20.116Z,23.25
2024-03-09T22:57:46.682Z,23.02
2024-03-09T23:00:28.033Z,22.95
2024-03-09T23:02:55.657Z,23.65
2024-03-09T23:05:24.145Z,22.98
2024-03-09T23:07:51.630Z,23.10
2024-03-09T23:10:21.252Z,23.10
2024-03-09T23:12:52.144Z,22.27
2024-03-09T23:15:22.287Z,22.70
2024-03-09T23:17:53.346Z,23.50
2024-03-09T23:20:24.779Z,22.67
2024-03-09T23:22:52.070Z,23.80
2024-03-09T23:25:19.450Z,24.10
2024-03-09T23:27:47.931Z,23.52
2024-03-09T23:30:17.261Z,23.48
2024-03-09T23:32:49.971Z,23.20
2024-03-09T23:35:18.789Z,22.45
2024-03-09T23:37:46.181Z,23.95
2024-03-09T23:40:14.726Z,24.30
2024-03-09T23:42:41.974Z,23.95
2024-03-09T23:45:16.305Z,23.73
2024-03-09T23:47:44.552Z,23.15
2024-03-09T23:50:18.658Z,23.42
2024-03-09T23:52:47.788Z,24.65
2024-03-09T23:55:14.479Z,22.77
2024-03-09T23:57:41.568Z,23.90
